createdAt,value
2023-03-13T00:01:02.803Z,88.89
2023-03-13T00:03:29.663Z,89.11
2023-03-13T00:05:58.025Z,88.84
2023-03-13T00:08:33.990Z,88.78
2023-03-13T00:11:08.108Z,89.11
2023-03-13T00:13:35.123Z,89.14
2023-03-13T00:16:29.115Z,88.86
2023-03-13T00:18:57.581Z,89.07
2023-03-13T00:21:26.761Z,89.03
2023-03-13T00:23:54.228Z,89.08
2023-03-13T00:26:23.727Z,88.88
2023-03-13T00:28:51.666Z,89.35
2023-03-13T00:31:21.735Z,89.23
2023-03-13T00:33:50.494Z,88.75
2023-03-13T00:36:21.560Z,88.48
2023-03-13T00:38:48.613Z,88.17
2023-03-13T00:41:18.252Z,88.24
2023-03-13T00:43:46.096Z,87.80
2023-03-13T00:46:17.265Z,88.13
2023-03-13T00:48:44.253Z,88.44
2023-03-13T00:51:11.580Z,88.19
2023-03-13T00:53:38.676Z,88.26
2023-03-13T00:56:07.288Z,88.40
2023-03-13T00:58:36.904Z,88.33
2023-03-13T01:01:24.434Z,88.37
2023-03-13T01:03:57.562Z,88.15
2023-03-13T01:06:27.856Z,88.23
2023-03-13T01:08:54.976Z,87.99
2023-03-13T01:11:25.611Z,87.61
2023-03-13T01:13:57.872Z,87.30
2023-03-13T01:16:26.461Z,87.30
2023-03-13T01:18:55.903Z,88.07
2023-03-13T01:21:25.447Z,87.77
2023-03-13T01:23:53.532Z,87.68
2023-03-13T01:26:21.679Z,87.28
2023-03-13T01:28:48.923Z,87.39
2023-03-13T01:31:19.720Z,87.33
2023-03-13T01:33:49.099Z,87.55
2023-03-13T01:36:16.692Z,87.29
2023-03-13T01:38:43.698Z,87.16
2023-03-13T01:41:13.171Z,86.52
2023-03-13T01:43:40.680Z,87.42
2023-03-13T01:46:07.640Z,87.60
2023-03-13T01:49:01.361Z,87.86
2023-03-13T01:51:47.106Z,87.54
2023-03-13T01:54:26.619Z,87.90
2023-03-13T01:57:09.256Z,88.03
2023-03-13T01:59:42.888Z,87.73
2023-03-13T02:02:09.948Z,88.44
2023-03-13T02:04:40.289Z,88.74
2023-03-13T02:07:14.536Z,88.74
2023-03-13T02:09:44.123Z,88.40
2023-03-13T02:12:15.673Z,89.02
2023-03-13T02:14:47.885Z,89.34
2023-03-13T02:17:15.809Z,89.05
2023-03-13T02:19:52.161Z,89.57
2023-03-13T02:22:54.886Z,89.49
2023-03-13T02:25:24.735Z,89.62
2023-03-13T02:27:56.613Z,89.95
2023-03-13T02:30:24.089Z,90.09
2023-03-13T02:32:53.305Z,90.32
2023-03-13T02:35:27.793Z,90.16
2023-03-13T02:38:00.175Z,90.15
2023-03-13T02:40:34.171Z,90.32
2023-03-13T02:43:05.264Z,90.07
2023-03-13T02:45:32.214Z,90.55
2023-03-13T02:47:59.249Z,90.22
2023-03-13T02:50:26.321Z,90.78
2023-03-13T02:53:01.067Z,90.51
2023-03-13T02:55:48.060Z,90.70
2023-03-13T02:58:14.914Z,90.93
2023-03-13T03:00:41.734Z,90.98
2023-03-13T03:03:08.741Z,90.76
2023-03-13T03:05:35.788Z,90.96
2023-03-13T03:08:02.597Z,90.76
2023-03-13T03:10:29.725Z,91.24
2023-03-13T03:12:56.769Z,91.15
2023-03-13T03:15:23.969Z,90.89
2023-03-13T03:17:53.459Z,91.53
2023-03-13T03:20:20.427Z,91.05
2023-03-13T03:22:47.457Z,91.44
2023-03-13T03:25:14.165Z,91.23
2023-03-13T03:27:41.050Z,91.17
2023-03-13T03:30:08.747Z,90.96
2023-03-13T03:32:35.925Z,91.25
2023-03-13T03:35:02.981Z,90.93
2023-03-13T03:37:29.909Z,91.06
2023-03-13T03:39:56.770Z,91.24
2023-03-13T03:42:23.787Z,91.32
2023-03-13T03:44:50.630Z,91.18
2023-03-13T03:47:18.083Z,91.54
2023-03-13T03:49:44.970Z,91.48
2023-03-13T03:52:11.797Z,91.61
2023-03-13T03:54:38.741Z,91.83
2023-03-13T03:57:05.549Z,91.86
2023-03-13T03:59:32.776Z,91.87
2023-03-13T04:01:59.606Z,92.11
2023-03-13T04:04:26.900Z,91.74
2023-03-13T04:06:54.432Z,91.67
2023-03-13T04:09:21.154Z,91.66
2023-03-13T04:11:48.156Z,91.67
2023-03-13T04:14:15.312Z,91.93
2023-03-13T04:16:42.181Z,91.95
2023-03-13T04:19:09.325Z,91.93
2023-03-13T04:21:36.741Z,92.12
2023-03-13T04:24:03.700Z,91.92
2023-03-13T04:26:30.714Z,91.61
2023-03-13T04:28:57.623Z,91.74
2023-03-13T04:31:24.575Z,91.89
2023-03-13T04:33:51.477Z,91.77
2023-03-13T04:36:18.201Z,91.95
2023-03-13T04:38:45.241Z,91.94
2023-03-13T04:41:13.190Z,92.47
2023-03-13T04:43:40.186Z,92.03
2023-03-13T04:46:07.145Z,92.35
2023-03-13T04:48:34.161Z,92.12
2023-03-13T04:51:01.432Z,92.21
2023-03-13T04:53:28.690Z,92.42
2023-03-13T04:55:55.563Z,92.76
2023-03-13T04:58:22.512Z,92.68
2023-03-13T05:00:49.468Z,92.58
2023-03-13T05:03:16.352Z,92.84
2023-03-13T05:05:43.240Z,92.80
2023-03-13T05:08:11.216Z,92.72
2023-03-13T05:10:38.342Z,92.74
2023-03-13T05:13:05.188Z,92.83
2023-03-13T05:15:32.208Z,92.80
2023-03-13T05:17:59.159Z,92.63
2023-03-13T05:20:26.253Z,93.08
2023-03-13T05:22:53.360Z,92.67
2023-03-13T05:25:20.255Z,92.42
2023-03-13T05:27:47.245Z,92.70
2023-03-13T05:30:14.252Z,92.86
2023-03-13T05:32:42.323Z,92.69
2023-03-13T05:35:09.460Z,93.07
2023-03-13T05:37:36.410Z,93.00
2023-03-13T05:40:04.590Z,93.02
2023-03-13T05:42:31.486Z,93.56
2023-03-13T05:44:58.335Z,93.63
2023-03-13T05:47:25.262Z,93.13
2023-03-13T05:49:52.252Z,93.15
2023-03-13T05:52:19.353Z,93.49
2023-03-13T05:54:46.359Z,93.26
2023-03-13T05:57:13.511Z,92.75
2023-03-13T05:59:40.782Z,93.08
2023-03-13T06:02:07.714Z,93.07
2023-03-13T06:04:35.844Z,93.58
2023-03-13T06:07:02.922Z,93.29
2023-03-13T06:09:29.777Z,93.08
2023-03-13T06:11:56.720Z,93.10
2023-03-13T06:14:23.896Z,92.99
2023-03-13T06:16:50.891Z,93.63
2023-03-13T06:19:20.820Z,92.92
2023-03-13T06:21:47.680Z,93.17
2023-03-13T06:24:14.560Z,93.17
2023-03-13T06:26:41.543Z,93.93
2023-03-13T06:29:08.401Z,93.94
2023-03-13T06:31:35.404Z,93.70
2023-03-13T06:34:02.646Z,93.37
2023-03-13T06:36:29.658Z,93.88
2023-03-13T06:38:56.634Z,93.66
2023-03-13T06:41:23.700Z,93.79
2023-03-13T06:43:50.670Z,93.81
2023-03-13T06:46:23.171Z,93.38
2023-03-13T06:48:50.989Z,93.23
2023-03-13T06:51:21.385Z,93.89
2023-03-13T06:53:51.587Z,93.17
2023-03-13T06:56:18.999Z,93.37
2023-03-13T06:58:49.888Z,92.83
2023-03-13T07:01:24.367Z,92.79
2023-03-13T07:03:51.616Z,92.65
2023-03-13T07:06:18.958Z,92.29
2023-03-13T07:08:46.327Z,92.73
2023-03-13T07:11:16.564Z,92.74
2023-03-13T07:13:43.561Z,92.87
2023-03-13T07:16:13.335Z,93.51
2023-03-13T07:18:47.259Z,93.16
2023-03-13T07:21:15.103Z,93.12
2023-03-13T07:23:42.095Z,93.44
2023-03-13T07:26:13.970Z,93.11
2023-03-13T07:28:41.120Z,93.30
2023-03-13T07:31:17.031Z,92.83
2023-03-13T07:33:45.158Z,92.41
2023-03-13T07:36:14.103Z,93.04
2023-03-13T07:38:43.274Z,92.88
2023-03-13T07:41:19.777Z,93.47
2023-03-13T07:43:46.957Z,92.69
2023-03-13T07:46:18.862Z,93.13
2023-03-13T07:48:46.873Z,93.31
2023-03-13T07:51:23.269Z,92.98
2023-03-13T07:53:52.893Z,92.53
2023-03-13T07:56:24.017Z,93.15
2023-03-13T07:58:52.148Z,92.49
2023-03-13T08:01:26.836Z,93.26
2023-03-13T08:03:56.168Z,92.35
2023-03-13T08:06:29.814Z,93.34
2023-03-13T08:08:58.990Z,93.04
2023-03-13T08:11:28.578Z,91.84
2023-03-13T08:13:57.356Z,92.59
2023-03-13T08:16:28.027Z,92.64
2023-03-13T08:18:57.235Z,92.90
2023-03-13T08:21:35.652Z,92.30
2023-03-13T08:24:07.136Z,93.32
2023-03-13T08:26:36.686Z,92.93
2023-03-13T08:29:07.364Z,91.63
2023-03-13T08:31:42.486Z,91.89
2023-03-13T08:34:12.745Z,91.95
2023-03-13T08:36:40.000Z,91.98
2023-03-13T08:39:19.029Z,92.17
2023-03-13T08:41:46.367Z,91.68
2023-03-13T08:44:18.662Z,92.32
2023-03-13T08:46:45.848Z,92.41
2023-03-13T08:49:13.654Z,92.23
2023-03-13T08:51:41.036Z,91.91
2023-03-13T08:54:08.127Z,92.24
2023-03-13T08:56:35.374Z,92.17
2023-03-13T08:59:04.518Z,91.76
2023-03-13T09:01:36.239Z,91.76
2023-03-13T09:04:05.309Z,92.25
2023-03-13T09:06:37.446Z,91.81
2023-03-13T09:09:06.976Z,92.10
2023-03-13T09:11:34.779Z,92.14
2023-03-13T09:14:03.019Z,91.42
2023-03-13T09:16:32.929Z,91.40
2023-03-13T09:19:00.423Z,91.01
2023-03-13T09:21:35.901Z,90.95
2023-03-13T09:24:04.197Z,91.36
2023-03-13T09:26:31.235Z,91.09
2023-03-13T09:28:58.991Z,91.58
2023-03-13T09:31:35.591Z,90.57
2023-03-13T09:34:02.909Z,90.53
2023-03-13T09:36:30.221Z,90.40
2023-03-13T09:38:59.505Z,90.01
2023-03-13T09:41:31.492Z,89.47
2023-03-13T09:44:18.446Z,90.00
2023-03-13T09:47:12.664Z,90.07
2023-03-13T09:49:47.375Z,90.47
2023-03-13T09:52:27.685Z,90.58
2023-03-13T09:55:03.378Z,90.39
2023-03-13T09:57:55.997Z,89.75
2023-03-13T10:00:25.526Z,89.87
2023-03-13T10:03:21.122Z,89.45
2023-03-13T10:05:55.608Z,89.59
2023-03-13T10:08:25.154Z,90.34
2023-03-13T10:11:07.901Z,88.76
2023-03-13T10:13:44.028Z,88.99
2023-03-13T10:16:53.579Z,88.77
2023-03-13T10:19:31.525Z,88.01
2023-03-13T10:22:02.506Z,87.25
2023-03-13T10:24:42.717Z,88.00
2023-03-13T10:27:11.566Z,87.32
2023-03-13T10:29:38.935Z,84.10
2023-03-13T10:32:08.588Z,79.33
2023-03-13T10:34:58.799Z,76.96
2023-03-13T10:37:40.428Z,73.60
2023-03-13T10:40:26.848Z,75.93
2023-03-13T10:43:01.206Z,76.69
2023-03-13T10:45:33.151Z,78.26
2023-03-13T10:48:27.524Z,80.05
2023-03-13T10:51:01.231Z,80.87
2023-03-13T10:53:29.226Z,81.60
2023-03-13T10:56:18.845Z,83.07
2023-03-13T10:58:50.170Z,83.35
2023-03-13T11:01:29.844Z,83.17
2023-03-13T11:04:03.122Z,82.69
2023-03-13T11:06:31.388Z,81.04
2023-03-13T11:09:03.636Z,69.56
2023-03-13T11:11:31.297Z,54.52
2023-03-13T11:14:25.430Z,60.71
2023-03-13T11:16:59.389Z,65.46
2023-03-13T11:19:30.184Z,67.48
2023-03-13T11:22:15.363Z,69.03
2023-03-13T11:25:04.857Z,70.32
2023-03-13T11:28:07.319Z,71.69
2023-03-13T11:30:49.260Z,72.16
2023-03-13T11:33:28.841Z,71.07
2023-03-13T11:36:10.516Z,65.57
2023-03-13T11:38:44.706Z,51.39
2023-03-13T11:41:41.837Z,49.53
2023-03-13T11:44:27.085Z,48.12
2023-03-13T11:47:14.025Z,46.43
2023-03-13T11:50:08.563Z,54.46
2023-03-13T11:52:47.569Z,59.50
2023-03-13T11:55:26.875Z,57.99
2023-03-13T11:58:09.630Z,54.00
2023-03-13T12:00:58.176Z,50.99
2023-03-13T12:03:37.373Z,48.38
2023-03-13T12:06:15.926Z,53.92
2023-03-13T12:08:56.206Z,59.49
2023-03-13T12:11:28.882Z,59.58
2023-03-13T12:14:05.606Z,60.53
2023-03-13T12:16:57.411Z,54.03
2023-03-13T12:19:46.074Z,53.63
2023-03-13T12:22:25.087Z,50.70
2023-03-13T12:25:00.152Z,52.55
2023-03-13T12:27:33.806Z,57.21
2023-03-13T12:30:06.963Z,58.71
2023-03-13T12:32:33.831Z,60.12
2023-03-13T12:35:32.249Z,58.65
2023-03-13T12:38:14.516Z,57.93
2023-03-13T12:41:15.108Z,59.47
2023-03-13T12:43:57.215Z,57.32
2023-03-13T12:47:12.807Z,55.76
2023-03-13T12:50:04.802Z,54.81
2023-03-13T12:52:31.828Z,55.59
2023-03-13T12:55:14.603Z,55.87
2023-03-13T12:58:06.799Z,55.68
2023-03-13T13:00:40.243Z,55.07
2023-03-13T13:03:43.922Z,54.45
2023-03-13T13:06:14.390Z,56.63
2023-03-13T13:08:53.034Z,56.03
2023-03-13T13:11:41.290Z,56.38
2023-03-13T13:14:17.622Z,55.80
2023-03-13T13:16:48.713Z,56.56
2023-03-13T13:19:24.714Z,56.43
2023-03-13T13:22:29.009Z,57.27
2023-03-13T13:25:00.782Z,56.29
2023-03-13T13:27:50.931Z,55.93
2023-03-13T13:30:18.004Z,56.87
2023-03-13T13:32:50.090Z,54.27
2023-03-13T13:35:24.738Z,56.31
2023-03-13T13:37:51.942Z,55.03
2023-03-13T13:40:26.856Z,56.82
2023-03-13T13:43:02.119Z,54.94
2023-03-13T13:45:35.666Z,53.79
2023-03-13T13:48:26.754Z,54.33
2023-03-13T13:51:13.290Z,53.62
2023-03-13T13:53:47.997Z,53.71
2023-03-13T13:56:39.551Z,54.58
2023-03-13T13:59:52.626Z,52.63
2023-03-13T14:03:00.391Z,53.98
2023-03-13T14:05:30.866Z,53.31
2023-03-13T14:08:16.463Z,53.91
2023-03-13T14:10:47.107Z,53.52
2023-03-13T14:13:22.156Z,54.17
2023-03-13T14:15:53.055Z,53.45
2023-03-13T14:18:25.940Z,53.32
2023-03-13T14:20:54.491Z,53.98
2023-03-13T14:23:42.396Z,54.40
2023-03-13T14:26:18.171Z,53.89
2023-03-13T14:29:07.378Z,52.68
2023-03-13T14:31:37.650Z,52.76
2023-03-13T14:34:07.817Z,52.04
2023-03-13T14:37:01.600Z,53.46
2023-03-13T14:39:34.439Z,52.11
2023-03-13T14:42:05.776Z,53.14
2023-03-13T14:44:41.795Z,52.59
2023-03-13T14:47:31.022Z,51.33
2023-03-13T14:50:04.566Z,52.78
2023-03-13T14:52:34.087Z,52.70
2023-03-13T14:55:05.344Z,51.90
2023-03-13T14:57:33.369Z,53.02
2023-03-13T15:00:28.332Z,52.98
2023-03-13T15:03:17.205Z,54.63
2023-03-13T15:05:46.180Z,53.66
2023-03-13T15:08:23.159Z,54.82
2023-03-13T15:10:51.090Z,54.03
2023-03-13T15:13:34.385Z,53.48
2023-03-13T15:16:04.291Z,53.80
2023-03-13T15:18:34.625Z,54.55
2023-03-13T15:21:13.512Z,55.63
2023-03-13T15:23:49.381Z,54.45
2023-03-13T15:26:16.362Z,55.89
2023-03-13T15:28:43.516Z,56.88
2023-03-13T15:31:13.266Z,56.96
2023-03-13T15:33:40.735Z,56.89
2023-03-13T15:36:08.119Z,56.21
2023-03-13T15:38:35.543Z,56.68
2023-03-13T15:41:02.678Z,56.35
2023-03-13T15:43:29.740Z,56.62
2023-03-13T15:45:56.650Z,55.53
2023-03-13T15:48:29.676Z,56.90
2023-03-13T15:51:02.628Z,57.46
2023-03-13T15:53:34.784Z,58.37
2023-03-13T15:56:03.552Z,57.82
2023-03-13T15:58:30.752Z,57.71
2023-03-13T16:00:58.661Z,58.52
2023-03-13T16:03:27.437Z,59.03
2023-03-13T16:05:56.255Z,58.02
2023-03-13T16:08:37.068Z,58.51
2023-03-13T16:11:04.357Z,58.72
2023-03-13T16:13:31.721Z,57.83
2023-03-13T16:15:58.820Z,56.76
2023-03-13T16:18:26.225Z,57.39
2023-03-13T16:20:53.967Z,56.96
2023-03-13T16:23:20.884Z,57.51
2023-03-13T16:25:48.762Z,57.67
2023-03-13T16:28:16.556Z,54.69
2023-03-13T16:30:47.890Z,54.66
2023-03-13T16:33:17.322Z,53.44
2023-03-13T16:35:47.371Z,53.65
2023-03-13T16:38:14.387Z,53.03
2023-03-13T16:40:41.489Z,52.34
2023-03-13T16:43:15.788Z,52.73
2023-03-13T16:45:42.796Z,54.15
2023-03-13T16:48:17.713Z,52.93
2023-03-13T16:50:46.910Z,53.84
2023-03-13T16:53:15.017Z,53.75
2023-03-13T16:55:42.126Z,54.22
2023-03-13T16:58:12.798Z,54.68
2023-03-13T17:00:39.917Z,55.51
2023-03-13T17:03:06.847Z,55.42
2023-03-13T17:05:33.980Z,55.11
2023-03-13T17:08:00.862Z,55.37
2023-03-13T17:10:30.412Z,55.90
2023-03-13T17:12:59.678Z,56.14
2023-03-13T17:15:28.803Z,56.80
2023-03-13T17:17:56.577Z,57.70
2023-03-13T17:20:29.826Z,57.45
2023-03-13T17:22:57.112Z,56.93
2023-03-13T17:25:25.249Z,56.07
2023-03-13T17:27:52.711Z,57.58
2023-03-13T17:30:19.688Z,58.27
2023-03-13T17:32:48.284Z,57.61
2023-03-13T17:35:15.608Z,57.61
2023-03-13T17:37:44.688Z,57.73
2023-03-13T17:40:19.624Z,57.30
2023-03-13T17:42:48.287Z,57.49
2023-03-13T17:45:20.490Z,57.46
2023-03-13T17:47:49.451Z,57.54
2023-03-13T17:50:27.407Z,57.51
2023-03-13T17:52:54.876Z,58.45
2023-03-13T17:55:22.044Z,58.78
2023-03-13T17:57:49.816Z,59.93
2023-03-13T18:00:22.215Z,61.26
2023-03-13T18:02:49.824Z,62.22
2023-03-13T18:05:17.113Z,63.06
2023-03-13T18:07:44.593Z,63.77
2023-03-13T18:10:20.807Z,63.89
2023-03-13T18:12:48.298Z,65.23
2023-03-13T18:15:15.478Z,65.40
2023-03-13T18:17:42.582Z,66.57
2023-03-13T18:20:21.923Z,66.56
2023-03-13T18:22:48.920Z,67.74
2023-03-13T18:25:15.895Z,68.80
2023-03-13T18:27:42.755Z,68.95
2023-03-13T18:30:19.178Z,69.02
2023-03-13T18:32:46.732Z,68.63
2023-03-13T18:35:14.100Z,68.12
2023-03-13T18:37:46.518Z,68.55
2023-03-13T18:40:24.566Z,67.90
2023-03-13T18:42:52.052Z,68.89
2023-03-13T18:45:24.005Z,68.82
2023-03-13T18:47:51.329Z,69.58
2023-03-13T18:50:28.588Z,68.77
2023-03-13T18:53:00.554Z,69.65
2023-03-13T18:55:30.305Z,69.64
2023-03-13T18:58:00.367Z,68.87
2023-03-13T19:00:30.516Z,69.30
2023-03-13T19:02:57.608Z,69.08
2023-03-13T19:05:24.963Z,69.18
2023-03-13T19:07:52.048Z,68.92
2023-03-13T19:10:26.149Z,67.06
2023-03-13T19:12:55.122Z,66.77
2023-03-13T19:15:24.627Z,65.55
2023-03-13T19:17:52.255Z,65.65
2023-03-13T19:20:22.050Z,65.46
2023-03-13T19:22:49.019Z,65.05
2023-03-13T19:25:19.870Z,64.99
2023-03-13T19:27:50.123Z,65.44
2023-03-13T19:30:25.953Z,64.38
2023-03-13T19:32:53.429Z,63.94
2023-03-13T19:35:22.312Z,65.18
2023-03-13T19:37:50.092Z,65.09
2023-03-13T19:40:26.084Z,65.12
2023-03-13T19:42:56.049Z,65.74
2023-03-13T19:45:23.138Z,65.46
2023-03-13T19:47:50.488Z,65.38
2023-03-13T19:50:23.319Z,65.46
2023-03-13T19:52:50.378Z,65.51
2023-03-13T19:55:17.356Z,65.80
2023-03-13T19:57:44.501Z,65.86
2023-03-13T20:00:19.765Z,65.88
2023-03-13T20:02:47.047Z,65.84
2023-03-13T20:05:14.134Z,66.19
2023-03-13T20:07:41.990Z,66.05
2023-03-13T20:10:09.438Z,65.78
2023-03-13T20:12:36.505Z,65.64
2023-03-13T20:15:03.904Z,66.29
2023-03-13T20:17:33.536Z,67.40
2023-03-13T20:20:00.324Z,67.89
2023-03-13T20:22:27.289Z,68.27
2023-03-13T20:24:56.053Z,67.98
2023-03-13T20:27:22.875Z,67.68
2023-03-13T20:29:50.231Z,68.19
2023-03-13T20:32:17.119Z,67.98
2023-03-13T20:34:44.008Z,68.43
2023-03-13T20:37:10.869Z,68.60
2023-03-13T20:39:38.557Z,68.46
2023-03-13T20:42:08.381Z,69.22
2023-03-13T20:44:35.317Z,68.51
2023-03-13T20:47:02.120Z,69.62
2023-03-13T20:49:29.030Z,69.26
2023-03-13T20:51:55.997Z,69.65
2023-03-13T20:54:22.963Z,69.57
2023-03-13T20:56:49.782Z,70.28
2023-03-13T20:59:16.676Z,71.19
2023-03-13T21:01:44.219Z,71.60
2023-03-13T21:04:11.172Z,71.14
2023-03-13T21:06:38.143Z,70.98
2023-03-13T21:09:07.943Z,71.00
2023-03-13T21:11:34.960Z,70.92
2023-03-13T21:14:04.750Z,70.18
2023-03-13T21:16:31.745Z,71.14
2023-03-13T21:18:59.231Z,70.94
2023-03-13T21:21:29.718Z,70.49
2023-03-13T21:23:56.652Z,70.87
2023-03-13T21:26:23.473Z,70.76
2023-03-13T21:28:51.231Z,71.14
2023-03-13T21:31:19.291Z,71.43
2023-03-13T21:33:47.884Z,71.22
2023-03-13T21:36:18.695Z,71.87
2023-03-13T21:38:46.076Z,71.62
2023-03-13T21:41:16.807Z,71.80
2023-03-13T21:43:43.940Z,71.29
2023-03-13T21:46:13.003Z,71.07
2023-03-13T21:48:41.769Z,70.64
2023-03-13T21:51:09.160Z,70.37
2023-03-13T21:53:37.105Z,70.76
2023-03-13T21:56:05.011Z,69.50
2023-03-13T21:58:34.140Z,69.08
2023-03-13T22:01:01.232Z,68.87
2023-03-13T22:03:28.283Z,68.92
2023-03-13T22:05:55.581Z,67.88
2023-03-13T22:08:22.655Z,68.57
2023-03-13T22:10:51.063Z,68.64
2023-03-13T22:13:17.959Z,68.93
2023-03-13T22:15:46.718Z,69.23
2023-03-13T22:18:14.725Z,70.24
2023-03-13T22:20:42.290Z,70.32
2023-03-13T22:23:10.676Z,69.60
2023-03-13T22:25:42.529Z,69.12
2023-03-13T22:28:11.047Z,69.23
2023-03-13T22:30:39.200Z,69.23
2023-03-13T22:33:07.024Z,69.72
2023-03-13T22:35:35.661Z,70.06
2023-03-13T22:38:03.840Z,69.88
2023-03-13T22:40:30.773Z,70.03
2023-03-13T22:42:57.884Z,71.05
2023-03-13T22:45:25.768Z,71.21
2023-03-13T22:47:52.532Z,71.28
2023-03-13T22:50:21.085Z,71.05
2023-03-13T22:52:47.977Z,71.73
2023-03-13T22:55:14.902Z,73.10
2023-03-13T22:57:41.876Z,73.17
2023-03-13T23:00:10.338Z,73.68
2023-03-13T23:02:37.215Z,74.01
2023-03-13T23:05:04.573Z,74.48
2023-03-13T23:07:32.655Z,74.19
2023-03-13T23:09:59.892Z,74.67
2023-03-13T23:12:27.104Z,73.75
2023-03-13T23:14:54.721Z,73.70
2023-03-13T23:17:21.682Z,74.09
2023-03-13T23:19:48.915Z,74.44
2023-03-13T23:22:18.202Z,74.75
2023-03-13T23:24:45.315Z,73.88
2023-03-13T23:27:12.091Z,74.81
2023-03-13T23:29:39.409Z,74.61
2023-03-13T23:32:06.821Z,74.94
2023-03-13T23:34:36.109Z,74.94
2023-03-13T23:37:03.526Z,74.76
2023-03-13T23:39:31.020Z,74.58
2023-03-13T23:41:58.045Z,74.45
2023-03-13T23:44:24.740Z,75.00
2023-03-13T23:46:51.881Z,75.21
2023-03-13T23:49:18.666Z,76.09
2023-03-13T23:51:45.603Z,74.60
2023-03-13T23:54:12.762Z,75.53
2023-03-13T23:56:39.728Z,75.20
2023-03-13T23:59:06.699Z,75.20
